Arnold, Michigan
Current Conditions -  °F | °C
As of 10:17 PM on Monday 26 Jan 2015 (Local Time) from KSAW Reporting Station
Light Snow Light Snow  
Wind Chill:   Ceiling: 1600
Heat Index: 19°   Visibility: 3mi
Dew Point: 15°   Wind: 7mph
Humidity: 87%   Direction: 150°SSE
Pressure: 29.94"   Gusts: NA
Location:  46.05°N, 87.49°W
Report Text: KSAW 270317Z AUTO 15006KT 3SM -SN BKN016 OVC024 M07/M09 A2994 RMK AO2 T10751093
Loading
Personal Weather Stations






























Interactive Weather Map New forecast layout! Learn more

10-Day Weather Forecast

Advertisements
Track Severe Weather on mobile